Olga, WA

2:18 PM PDT on March 29, 2015 (GMT -0700)
Bellingham International | | Change Station
CLOSE
Current Station
Airport
Location: Bellingham,
Elevation: 151 ft
Nearby Weather Stations

Elev 151 ft 48.80 °N, 122.54 °W | Updated 25 minutes ago

Rain
Rain
56 °F
Feels Like 56 °F
N
14
Wind Variable Wind from SSE
Gusts 21 mph

Today
High -- | Low -- °F
--% Chance of Precip.
Yesterday
High -- | Low -- °F
Precip. -- in
6:55 AM 7:37 PM
Waxing Gibbous, 74% visible
Pressure 30.20 in
Visibility 10.0 miles
Clouds Overcast 5500 ft
Dew Point 44 °F
Humidity 64%
Rainfall 0.10 in
Snow Depth Not available.
UV 2 out of 12
Pollen 6.80 out of 12
Air Quality Not available.
Flu Activity Not available.
METAR KBLI 292053Z 15012G18KT 10SM -RA OVC055 13/07 A3017 RMK AO2 SLP225 P0001 60003 T01330067 55000

More Conditions Fewer Conditions

Pressure 30.20 in
Visibility 10.0 miles
Clouds Overcast 5500 ft
Dew Point 44 °F
Humidity 64%
Rainfall 0.10 in
Snow Depth Not available.
UV 2 out of 12
Pollen 6.80 out of 12
Air Quality Not available.
Flu Activity Not available.
METAR KBLI 292053Z 15012G18KT 10SM -RA OVC055 13/07 A3017 RMK AO2 SLP225 P0001 60003 T01330067 55000

More Conditions Fewer Conditions

10-Day Weather Forecast

Almanac

Astronomy

Mar. 29, 2015 Rise Set
Actual Time
Civil Twilight
Nautical Twilight
Astronomical Twilight
Moon
Length of Visible Light
Length of Day
Tomorrow will be .
, % of the Moon is Illuminated

Today's Extremes

State Highs State Lows

Community

WunderPhotos

Upload Photos

1,809,353 photos uploaded!

WunderBlogs® & News

Nearby

Air Quality

  Air Quality AQ Index Pollutant
Not available.

Snow Depth

Station Depth Elevation

Earthquake Activity

City Distance Mag. Time & Date
Minimum magnitude displayed is 2.5.

Coastal Water Temperatures

Place Temperature

Stations

Nearby Weather Stations

Station Location Temp. Windchill Dew Point Humidity Wind Precip. Elev Updated Type